Time;durP1;ratioP1;P1;durP2;ratioP2;P2;SDS_P1;SDS_P2;PMS_P1;PMS_P2;Temp;Humidity;BMP_temperature;BMP_pressure;BME280_temperature;BME280_humidity;BME280_pressure;Samples;Min_cycle;Max_cycle;Signal;HPM_P1;HPM_P2
2021/11/19 00:00:10;;;;;;;15.65;7.75;;;12.00;86.90;;;;;;5088678;28;20040;-79
2021/11/19 00:02:36;;;;;;;16.15;8.93;;;12.00;87.00;;;;;;5090645;28;20024;-79
2021/11/19 00:05:02;;;;;;;17.27;9.50;;;12.00;87.00;;;;;;5090611;28;20043;-79
2021/11/19 00:07:27;;;;;;;17.73;8.23;;;12.00;87.10;;;;;;5089759;28;20020;-80
2021/11/19 00:09:53;;;;;;;17.23;8.65;;;12.00;87.00;;;;;;5091896;28;20382;-79
2021/11/19 00:12:19;;;;;;;13.68;7.97;;;12.00;87.10;;;;;;5091795;28;20016;-79
2021/11/19 00:14:44;;;;;;;16.73;9.60;;;12.00;87.10;;;;;;5091829;28;20039;-80
2021/11/19 00:17:10;;;;;;;16.50;8.30;;;12.00;87.20;;;;;;5094330;28;20032;-79
2021/11/19 00:19:39;;;;;;;14.93;8.55;;;12.00;87.10;;;;;;5090721;28;20020;-80
2021/11/19 00:22:06;;;;;;;15.13;7.72;;;12.00;87.10;;;;;;5092077;28;20028;-79
2021/11/19 00:24:34;;;;;;;21.85;10.20;;;12.10;87.10;;;;;;5092907;28;20119;-79
2021/11/19 00:26:59;;;;;;;17.80;10.82;;;12.00;87.10;;;;;;5093323;28;20031;-79
2021/11/19 00:29:25;;;;;;;17.23;10.40;;;12.00;87.10;;;;;;5092954;28;20020;-80
2021/11/19 00:31:51;;;;;;;11.90;7.78;;;12.00;87.20;;;;;;5093309;28;20024;-80
2021/11/19 00:34:17;;;;;;;15.95;9.45;;;12.00;87.20;;;;;;5093574;28;20024;-80
2021/11/19 00:36:44;;;;;;;14.00;8.27;;;12.00;87.20;;;;;;5093329;28;20035;-80
2021/11/19 00:39:13;;;;;;;14.18;9.07;;;12.00;87.20;;;;;;5093701;28;20063;-79
2021/11/19 00:41:39;;;;;;;13.93;8.15;;;12.00;87.30;;;;;;5087798;28;20691;-79
2021/11/19 00:44:06;;;;;;;14.73;8.38;;;12.00;87.30;;;;;;5093053;28;20116;-79
2021/11/19 00:46:32;;;;;;;18.00;10.02;;;12.10;87.30;;;;;;5092419;28;20054;-79
2021/11/19 00:48:58;;;;;;;15.88;10.63;;;12.10;87.30;;;;;;5093782;28;20470;-80
2021/11/19 00:51:28;;;;;;;16.85;9.68;;;12.10;87.30;;;;;;5092064;28;20460;-79
2021/11/19 00:53:56;;;;;;;15.32;10.10;;;12.10;87.20;;;;;;5093483;28;20020;-79
2021/11/19 00:56:29;;;;;;;17.75;9.90;;;12.10;87.30;;;;;;5093753;28;20036;-79
2021/11/19 00:58:55;;;;;;;;;;;12.10;87.30;;;;;;5093298;28;20378;-79
2021/11/19 01:01:30;;;;;;;14.98;9.70;;;12.10;87.20;;;;;;5093306;28;19911;-79
2021/11/19 01:03:57;;;;;;;15.65;9.02;;;12.10;87.30;;;;;;5085876;28;20119;-81
2021/11/19 01:06:23;;;;;;;17.60;9.80;;;12.10;87.30;;;;;;5102931;28;20043;-78
2021/11/19 01:08:49;;;;;;;16.25;10.10;;;12.10;87.30;;;;;;5084485;28;20040;-78
2021/11/19 01:11:18;;;;;;;20.20;11.27;;;12.10;87.30;;;;;;5083459;28;20374;-79
2021/11/19 01:13:46;;;;;;;17.98;11.38;;;12.10;87.40;;;;;;5072628;28;20028;-79
2021/11/19 01:16:24;;;;;;;12.68;8.25;;;12.10;87.40;;;;;;5074479;28;20483;-79
2021/11/19 01:18:55;;;;;;;15.95;9.93;;;12.10;87.40;;;;;;5079408;28;20016;-80
2021/11/19 01:21:34;;;;;;;15.43;9.88;;;12.20;87.40;;;;;;5092106;28;20081;-79
2021/11/19 01:24:01;;;;;;;15.52;9.23;;;12.20;87.40;;;;;;5092032;28;20060;-79
2021/11/19 01:26:30;;;;;;;17.05;10.07;;;12.20;87.40;;;;;;5072014;28;20032;-80
2021/11/19 01:28:58;;;;;;;14.10;9.65;;;12.20;87.40;;;;;;5085167;28;20440;-79
2021/11/19 01:31:35;;;;;;;16.05;10.20;;;12.20;87.40;;;;;;5081582;28;20025;-80
2021/11/19 01:34:01;;;;;;;17.52;10.30;;;12.20;88.10;;;;;;5084771;28;20071;-80
2021/11/19 01:36:27;;;;;;;16.10;9.85;;;12.20;87.40;;;;;;5086180;28;20032;-79
2021/11/19 01:38:53;;;;;;;13.95;8.90;;;12.30;87.40;;;;;;5083479;28;20066;-79
2021/11/19 01:41:26;;;;;;;18.10;10.43;;;12.30;87.40;;;;;;5089789;28;20024;-80
2021/11/19 01:43:55;;;;;;;14.73;9.07;;;12.30;87.30;;;;;;5077630;28;20039;-80
2021/11/19 01:46:23;;;;;;;17.52;10.35;;;12.30;87.30;;;;;;5077794;28;20036;-78
2021/11/19 01:48:52;;;;;;;13.35;8.55;;;12.30;87.20;;;;;;5071837;28;20052;-79
2021/11/19 01:51:43;;;;;;;19.52;11.32;;;12.30;87.20;;;;;;5084599;28;20032;-79
2021/11/19 01:54:20;;;;;;;14.98;9.05;;;12.30;87.30;;;;;;5090226;28;20031;-78
2021/11/19 01:57:01;;;;;;;15.60;10.02;;;12.30;87.30;;;;;;5080333;28;20030;-78
2021/11/19 01:59:37;;;;;;;16.40;9.02;;;12.30;88.00;;;;;;5074283;28;20052;-78
2021/11/19 02:02:11;;;;;;;13.85;8.30;;;12.30;87.40;;;;;;5072735;28;20033;-79
2021/11/19 02:04:44;;;;;;;14.18;9.48;;;12.30;87.40;;;;;;5075439;28;20486;-79
2021/11/19 02:07:17;;;;;;;;;;;12.30;87.40;;;;;;5071802;28;20035;-80
2021/11/19 02:09:53;;;;;;;18.50;10.57;;;12.20;87.30;;;;;;5084426;28;20282;-80
2021/11/19 02:12:31;;;;;;;13.80;9.68;;;12.20;87.50;;;;;;5079473;28;20363;-80
2021/11/19 02:15:11;;;;;;;16.30;10.35;;;12.20;87.60;;;;;;5070819;28;20028;-80
2021/11/19 02:17:37;;;;;;;16.52;10.18;;;12.20;87.60;;;;;;5080159;28;20107;-79
2021/11/19 02:20:15;;;;;;;16.23;9.90;;;12.20;87.70;;;;;;5079874;28;20438;-79
2021/11/19 02:22:49;;;;;;;20.48;10.90;;;12.30;87.70;;;;;;5078398;28;20028;-79
2021/11/19 02:25:20;;;;;;;19.80;11.77;;;12.30;87.70;;;;;;5089845;28;20062;-78
2021/11/19 02:27:50;;;;;;;16.15;10.98;;;12.30;87.60;;;;;;5084124;28;20059;-79
2021/11/19 02:30:33;;;;;;;16.95;11.75;;;12.30;87.60;;;;;;5089636;28;20543;-79
2021/11/19 02:33:05;;;;;;;19.77;12.63;;;12.30;87.70;;;;;;5086814;28;20031;-79
2021/11/19 02:35:36;;;;;;;20.60;13.93;;;12.30;87.70;;;;;;5090686;28;20101;-78
2021/11/19 02:38:06;;;;;;;18.63;11.52;;;12.30;87.80;;;;;;5087706;28;20028;-79
2021/11/19 02:40:36;;;;;;;18.80;11.90;;;12.30;87.80;;;;;;5088189;28;20025;-79
2021/11/19 02:43:11;;;;;;;19.13;13.05;;;12.30;87.80;;;;;;5090721;28;20024;-79
2021/11/19 02:45:44;;;;;;;15.55;10.88;;;12.30;87.80;;;;;;5090338;28;20489;-79
2021/11/19 02:48:23;;;;;;;17.40;11.77;;;12.30;87.80;;;;;;5085702;28;20043;-79
2021/11/19 02:50:50;;;;;;;14.43;10.20;;;12.30;87.80;;;;;;5088969;28;20028;-79
2021/11/19 02:53:16;;;;;;;21.05;13.18;;;12.30;87.80;;;;;;5083851;28;20081;-79
2021/11/19 02:55:44;;;;;;;16.15;11.27;;;12.30;88.40;;;;;;5091329;28;20044;-79
2021/11/19 02:58:13;;;;;;;20.67;13.13;;;12.30;87.80;;;;;;5091392;28;20112;-79
2021/11/19 03:00:49;;;;;;;19.45;12.95;;;12.30;87.90;;;;;;5091668;28;20035;-79
2021/11/19 03:03:14;;;;;;;25.13;15.05;;;12.30;88.60;;;;;;5088015;28;20035;-79
2021/11/19 03:05:40;;;;;;;19.08;13.00;;;12.30;88.00;;;;;;5089857;28;20394;-79
2021/11/19 03:08:05;;;;;;;20.85;12.57;;;12.30;88.10;;;;;;5090699;28;20036;-78
2021/11/19 03:10:38;;;;;;;21.10;13.18;;;12.30;88.00;;;;;;5091485;28;20024;-79
2021/11/19 03:13:06;;;;;;;22.35;13.75;;;12.40;88.00;;;;;;5089635;28;20036;-79
2021/11/19 03:15:36;;;;;;;28.40;17.17;;;12.30;88.00;;;;;;5090842;28;20024;-78
2021/11/19 03:18:03;;;;;;;22.73;14.77;;;12.30;88.10;;;;;;5090264;28;20031;-79
2021/11/19 03:20:29;;;;;;;22.55;13.73;;;12.30;88.20;;;;;;5091084;28;20031;-79
2021/11/19 03:22:56;;;;;;;22.50;14.15;;;12.30;88.10;;;;;;5089458;28;20498;-79
2021/11/19 03:25:29;;;;;;;21.98;14.55;;;12.30;88.10;;;;;;5082609;28;20075;-78
2021/11/19 03:27:54;;;;;;;;;;;12.40;88.10;;;;;;5090099;28;20107;-78
2021/11/19 03:30:22;;;;;;;16.48;12.02;;;12.30;88.00;;;;;;5090263;28;19990;-78
2021/11/19 03:32:48;;;;;;;24.60;15.35;;;12.30;88.20;;;;;;5092798;28;20115;-78
2021/11/19 03:35:16;;;;;;;20.00;13.63;;;12.30;88.30;;;;;;5088844;28;20052;-78
2021/11/19 03:37:47;;;;;;;19.40;12.70;;;12.30;88.30;;;;;;5090511;28;20031;-78
2021/11/19 03:40:16;;;;;;;21.55;13.93;;;12.30;88.30;;;;;;5090775;28;20024;-78
2021/11/19 03:42:42;;;;;;;23.90;15.57;;;12.30;88.30;;;;;;5088557;28;20082;-78
2021/11/19 03:45:15;;;;;;;20.20;13.95;;;12.30;88.30;;;;;;5088537;28;20039;-78
2021/11/19 03:47:44;;;;;;;26.77;16.58;;;12.30;88.30;;;;;;5088798;28;20035;-79
2021/11/19 03:50:21;;;;;;;22.05;15.65;;;12.30;88.30;;;;;;5089270;28;20094;-78
2021/11/19 03:52:46;;;;;;;22.58;13.65;;;12.40;88.30;;;;;;5090534;28;20073;-78
2021/11/19 03:55:22;;;;;;;18.70;13.60;;;12.40;88.30;;;;;;5089681;28;20024;-78
2021/11/19 03:57:48;;;;;;;21.55;15.10;;;12.40;88.40;;;;;;5091120;28;20420;-78
2021/11/19 04:00:31;;;;;;;21.13;13.95;;;12.30;88.40;;;;;;5090230;28;20482;-79
2021/11/19 04:02:58;;;;;;;19.10;14.23;;;12.40;88.40;;;;;;5090170;28;20435;-79
2021/11/19 04:05:26;;;;;;;24.67;15.13;;;12.40;88.30;;;;;;5090615;28;20035;-78
2021/11/19 04:07:51;;;;;;;24.42;15.45;;;12.40;88.30;;;;;;5090582;28;20602;-79
2021/11/19 04:10:18;;;;;;;25.10;16.55;;;12.40;88.40;;;;;;5090362;28;20055;-78
2021/11/19 04:12:44;;;;;;;21.15;14.60;;;12.30;88.50;;;;;;5092680;28;20453;-79
2021/11/19 04:15:15;;;;;;;24.77;17.70;;;12.40;88.60;;;;;;5093679;28;20081;-79
2021/11/19 04:17:41;;;;;;;26.42;15.32;;;12.40;88.60;;;;;;5092928;28;20056;-80
2021/11/19 04:20:08;;;;;;;21.05;14.65;;;12.40;88.60;;;;;;5094146;28;20074;-79
2021/11/19 04:22:34;;;;;;;30.10;18.25;;;12.40;88.70;;;;;;5092248;28;20570;-79
2021/11/19 04:25:04;;;;;;;26.30;18.60;;;12.40;88.70;;;;;;5091309;28;20115;-79
2021/11/19 04:27:31;;;;;;;21.83;14.90;;;12.30;88.70;;;;;;5097628;28;20119;-79
2021/11/19 04:29:56;;;;;;;19.67;13.00;;;12.40;88.80;;;;;;5092855;28;20032;-79
2021/11/19 04:32:23;;;;;;;18.83;12.35;;;12.40;88.70;;;;;;5093104;28;20024;-80
2021/11/19 04:34:50;;;;;;;18.50;12.48;;;12.40;88.70;;;;;;5091445;28;20016;-79
2021/11/19 04:37:16;;;;;;;18.08;12.88;;;12.40;88.60;;;;;;5092984;28;20470;-79
2021/11/19 04:39:41;;;;;;;24.30;16.15;;;12.40;88.60;;;;;;5092723;28;20031;-79
2021/11/19 04:42:07;;;;;;;24.65;17.05;;;12.40;88.60;;;;;;5092819;28;20046;-79
2021/11/19 04:44:34;;;;;;;20.33;13.07;;;12.40;88.70;;;;;;5090724;28;20039;-79
2021/11/19 04:47:01;;;;;;;26.90;16.85;;;12.40;88.70;;;;;;5092854;28;20076;-79
2021/11/19 04:49:26;;;;;;;21.75;14.73;;;12.40;88.80;;;;;;5092812;28;20107;-80
2021/11/19 04:51:53;;;;;;;20.05;12.65;;;12.40;88.80;;;;;;5092875;28;20115;-79
2021/11/19 04:54:21;;;;;;;23.75;16.10;;;12.40;88.90;;;;;;5092086;28;20173;-79
2021/11/19 04:56:48;;;;;;;26.70;16.52;;;12.40;89.00;;;;;;5092956;28;20106;-79
2021/11/19 04:59:15;;;;;;;21.02;13.48;;;12.40;89.10;;;;;;5090711;28;20111;-78
2021/11/19 05:01:45;;;;;;;27.58;18.45;;;12.40;89.10;;;;;;5092711;28;20082;-79
2021/11/19 05:04:11;;;;;;;22.58;14.52;;;12.40;89.10;;;;;;5090673;28;20032;-78
2021/11/19 05:06:37;;;;;;;27.38;18.48;;;12.40;89.20;;;;;;5092731;28;20394;-79
2021/11/19 05:09:04;;;;;;;25.35;15.85;;;12.40;89.20;;;;;;5092202;28;20027;-79
2021/11/19 05:11:44;;;;;;;20.50;14.15;;;12.40;89.20;;;;;;5091119;28;20024;-79
2021/11/19 05:14:10;;;;;;;23.40;15.13;;;12.40;89.30;;;;;;5092137;28;20028;-79
2021/11/19 05:16:36;;;;;;;23.85;16.90;;;12.40;89.20;;;;;;5091950;28;20039;-79
2021/11/19 05:19:03;;;;;;;21.75;13.88;;;12.40;89.30;;;;;;5092401;28;20027;-79
2021/11/19 05:21:29;;;;;;;28.52;18.92;;;12.40;89.30;;;;;;5092202;28;20032;-79
2021/11/19 05:23:54;;;;;;;25.60;16.42;;;12.40;89.70;;;;;;5091621;28;20089;-79
2021/11/19 05:26:21;;;;;;;22.45;15.45;;;12.40;89.40;;;;;;5091958;28;20032;-79
2021/11/19 05:28:47;;;;;;;26.77;17.98;;;12.50;89.50;;;;;;5092088;28;20032;-79
2021/11/19 05:31:15;;;;;;;20.40;13.98;;;12.50;89.50;;;;;;5092640;28;20032;-79
2021/11/19 05:33:42;;;;;;;20.27;13.68;;;12.50;89.50;;;;;;5092551;28;20030;-79
2021/11/19 05:36:08;;;;;;;22.63;14.50;;;12.50;89.40;;;;;;5092287;28;20028;-79
2021/11/19 05:38:37;;;;;;;21.77;15.63;;;12.60;89.40;;;;;;5092765;28;20030;-78
2021/11/19 05:41:05;;;;;;;25.40;16.75;;;12.60;89.40;;;;;;5084311;28;20396;-79
2021/11/19 05:43:33;;;;;;;24.00;15.93;;;12.60;89.40;;;;;;5092093;28;20107;-78
2021/11/19 05:45:59;;;;;;;16.00;10.45;;;12.60;89.50;;;;;;5092499;28;20040;-78
2021/11/19 05:48:25;;;;;;;18.98;12.70;;;12.60;89.50;;;;;;5093037;28;20020;-79
2021/11/19 05:50:50;;;;;;;22.70;15.18;;;12.60;89.50;;;;;;5090676;28;20050;-80
2021/11/19 05:53:16;;;;;;;21.83;15.77;;;12.60;90.10;;;;;;5087491;28;20059;-78
2021/11/19 05:55:45;;;;;;;17.90;13.63;;;12.50;89.50;;;;;;5084200;28;20028;-77
2021/11/19 05:58:13;;;;;;;21.20;14.45;;;12.60;89.60;;;;;;5089070;28;20020;-77
2021/11/19 06:00:42;;;;;;;24.67;14.95;;;12.60;89.60;;;;;;5090363;28;20024;-78
2021/11/19 06:03:09;;;;;;;21.85;14.93;;;12.60;89.60;;;;;;5090240;28;20020;-78
2021/11/19 06:05:35;;;;;;;19.05;13.88;;;12.60;89.70;;;;;;5087492;28;20140;-78
2021/11/19 06:08:02;;;;;;;21.17;14.13;;;12.60;89.70;;;;;;5090524;28;20024;-79
2021/11/19 06:10:30;;;;;;;17.95;12.23;;;12.60;89.70;;;;;;5091344;28;20047;-78
2021/11/19 06:13:14;;;;;;;22.50;15.65;;;12.60;89.70;;;;;;5090721;28;20194;-78
2021/11/19 06:15:48;;;;;;;24.08;16.17;;;12.60;89.70;;;;;;5087532;28;20038;-79
2021/11/19 06:18:20;;;;;;;23.70;15.65;;;12.60;89.80;;;;;;5089925;28;20028;-78
2021/11/19 06:21:19;;;;;;;23.13;15.87;;;12.60;89.80;;;;;;5088573;28;20020;-78
2021/11/19 06:23:49;;;;;;;19.05;13.20;;;12.60;89.90;;;;;;5089049;28;20731;-80
2021/11/19 06:26:18;;;;;;;19.15;12.05;;;12.60;89.90;;;;;;5090459;28;20031;-80
2021/11/19 06:28:45;;;;;;;13.65;9.35;;;12.60;89.90;;;;;;5089379;28;20035;-79
2021/11/19 06:31:14;;;;;;;21.52;13.57;;;12.60;89.90;;;;;;5089882;28;20046;-79
2021/11/19 06:33:40;;;;;;;18.77;13.18;;;12.60;89.80;;;;;;5088703;28;20016;-79
2021/11/19 06:36:07;;;;;;;19.20;13.30;;;12.60;89.80;;;;;;5090399;28;20074;-80
2021/11/19 06:38:32;;;;;;;18.40;13.70;;;12.60;89.70;;;;;;5088272;28;20041;-78
2021/11/19 06:40:58;;;;;;;22.02;15.38;;;12.60;89.70;;;;;;5084160;28;20074;-79
2021/11/19 06:43:24;;;;;;;20.88;15.07;;;12.60;89.70;;;;;;5079759;28;20028;-79
2021/11/19 06:45:50;;;;;;;19.55;13.57;;;12.60;89.80;;;;;;5089660;28;20048;-78
2021/11/19 06:48:16;;;;;;;20.73;15.15;;;12.60;89.80;;;;;;5083195;28;20495;-78
2021/11/19 06:50:44;;;;;;;21.33;14.27;;;12.60;89.80;;;;;;5083678;28;20028;-80
2021/11/19 06:53:11;;;;;;;19.65;13.82;;;12.60;89.80;;;;;;5077822;28;20028;-80
2021/11/19 06:55:37;;;;;;;24.50;16.92;;;12.70;89.90;;;;;;5076462;28;20104;-79
2021/11/19 06:58:04;;;;;;;25.45;17.60;;;12.60;89.80;;;;;;5083812;28;20017;-79
2021/11/19 07:00:37;;;;;;;26.60;18.02;;;12.60;89.90;;;;;;5084505;28;20024;-79
2021/11/19 07:03:03;;;;;;;19.55;12.80;;;12.60;90.00;;;;;;5089468;28;20020;-76
2021/11/19 07:05:29;;;;;;;24.45;16.02;;;12.60;90.00;;;;;;5085974;28;20031;-80
2021/11/19 07:07:56;;;;;;;22.15;14.48;;;12.60;90.00;;;;;;5091263;28;20527;-80
2021/11/19 07:10:26;;;;;;;20.88;13.95;;;12.70;90.00;;;;;;5089414;28;20028;-79
2021/11/19 07:12:51;;;;;;;20.35;13.35;;;12.70;90.30;;;;;;5083678;28;20028;-79
2021/11/19 07:15:17;;;;;;;18.73;12.80;;;12.70;89.90;;;;;;5089020;28;20024;-79
2021/11/19 07:17:47;;;;;;;18.77;12.63;;;12.70;89.90;;;;;;5082021;28;20029;-80
2021/11/19 07:20:15;;;;;;;21.48;15.13;;;12.70;89.80;;;;;;5074851;28;20374;-78
2021/11/19 07:22:42;;;;;;;20.20;14.48;;;12.70;89.80;;;;;;5078367;28;20032;-79
2021/11/19 07:25:11;;;;;;;22.50;15.05;;;12.70;89.80;;;;;;5080699;28;20542;-78
2021/11/19 07:27:37;;;;;;;18.52;13.52;;;12.70;89.90;;;;;;5091336;28;20103;-78
2021/11/19 07:30:06;;;;;;;28.65;17.98;;;12.70;89.90;;;;;;5088845;28;20020;-79
2021/11/19 07:32:32;;;;;;;21.15;15.13;;;12.70;89.90;;;;;;5073371;28;20031;-79
2021/11/19 07:34:58;;;;;;;20.40;14.55;;;12.70;90.00;;;;;;5088225;28;20024;-80
2021/11/19 07:37:24;;;;;;;19.48;12.80;;;12.70;90.00;;;;;;5087348;28;20062;-79
2021/11/19 07:39:51;;;;;;;19.02;13.25;;;12.70;90.00;;;;;;5089475;28;20063;-80
2021/11/19 07:42:17;;;;;;;21.33;15.02;;;12.70;89.90;;;;;;5081474;28;20624;-80
2021/11/19 07:44:42;;;;;;;21.40;14.60;;;12.70;90.00;;;;;;5087908;28;20039;-80
2021/11/19 07:47:08;;;;;;;19.30;13.38;;;12.70;90.00;;;;;;5085190;28;20077;-80
2021/11/19 07:49:34;;;;;;;20.15;14.13;;;12.70;90.30;;;;;;5083890;28;20546;-80
2021/11/19 07:51:59;;;;;;;18.80;13.02;;;12.70;90.00;;;;;;5084922;28;20394;-80
2021/11/19 07:54:25;;;;;;;16.85;12.20;;;12.80;90.00;;;;;;5097184;28;20363;-79
2021/11/19 07:56:51;;;;;;;14.73;10.95;;;12.80;90.00;;;;;;5094490;28;20035;-80
2021/11/19 07:59:25;;;;;;;17.38;12.38;;;12.80;89.90;;;;;;5093233;28;20107;-80
2021/11/19 08:01:51;;;;;;;18.38;13.18;;;12.80;89.90;;;;;;5083664;28;20134;-80
2021/11/19 08:04:17;;;;;;;16.20;12.05;;;12.80;89.90;;;;;;5085588;28;20024;-79
2021/11/19 08:06:43;;;;;;;15.02;11.38;;;12.90;89.90;;;;;;5090389;28;20094;-79
2021/11/19 08:09:10;;;;;;;15.60;11.57;;;12.90;89.90;;;;;;5094445;28;20020;-79
2021/11/19 08:11:35;;;;;;;19.35;11.25;;;12.80;89.90;;;;;;5077461;28;20383;-79
2021/11/19 08:14:02;;;;;;;15.90;11.35;;;12.90;89.80;;;;;;5074013;28;20025;-79
2021/11/19 08:16:34;;;;;;;28.40;17.65;;;12.90;89.80;;;;;;5086622;28;20028;-80
2021/11/19 08:19:02;;;;;;;16.95;12.40;;;12.90;89.80;;;;;;5090276;28;20024;-79
2021/11/19 08:21:28;;;;;;;18.83;13.25;;;12.90;89.80;;;;;;5083294;28;20124;-79
2021/11/19 08:24:04;;;;;;;19.30;13.60;;;12.90;89.80;;;;;;5074324;28;20233;-79
2021/11/19 08:26:42;;;;;;;21.33;13.35;;;12.90;89.90;;;;;;5076785;28;20039;-80
2021/11/19 08:29:12;;;;;;;18.17;13.35;;;12.90;89.90;;;;;;5089425;28;20077;-80
2021/11/19 08:31:39;;;;;;;17.17;12.88;;;12.90;89.80;;;;;;5074377;28;20028;-79
2021/11/19 08:34:04;;;;;;;16.05;11.35;;;12.90;89.80;;;;;;5074685;28;20463;-79
2021/11/19 08:36:31;;;;;;;14.48;10.27;;;12.90;89.80;;;;;;5087632;28;20031;-79
2021/11/19 08:38:57;;;;;;;15.93;10.82;;;13.00;89.80;;;;;;5092559;28;20077;-80
2021/11/19 08:41:23;;;;;;;15.75;11.00;;;13.00;89.80;;;;;;5085647;28;20115;-80
2021/11/19 08:43:51;;;;;;;14.60;11.18;;;13.00;89.80;;;;;;5075962;28;20017;-80
2021/11/19 08:46:26;;;;;;;16.70;11.32;;;13.00;89.80;;;;;;5078601;28;20490;-80
2021/11/19 08:48:52;;;;;;;18.60;13.18;;;13.00;89.80;;;;;;5086739;28;20028;-81
2021/11/19 08:51:24;;;;;;;17.67;12.82;;;13.00;89.80;;;;;;5085275;28;20029;-81
2021/11/19 08:53:55;;;;;;;19.65;12.35;;;13.00;89.80;;;;;;5086896;28;20016;-80
2021/11/19 08:56:22;;;;;;;12.93;10.07;;;13.10;89.80;;;;;;5092315;28;20036;-81
2021/11/19 08:58:48;;;;;;;15.82;10.85;;;13.00;89.70;;;;;;5091705;28;20039;-80
2021/11/19 09:01:17;;;;;;;12.90;10.82;;;13.10;89.80;;;;;;5092469;28;20012;-81
2021/11/19 09:03:43;;;;;;;15.82;11.65;;;13.10;89.80;;;;;;5085885;28;20037;-80
2021/11/19 09:06:10;;;;;;;16.85;12.30;;;13.10;89.80;;;;;;5090347;28;20402;-80
2021/11/19 09:08:38;;;;;;;17.60;12.60;;;13.10;89.80;;;;;;5092462;28;20024;-81
2021/11/19 09:11:05;;;;;;;13.43;10.13;;;13.10;89.70;;;;;;5091213;28;20073;-81
2021/11/19 09:13:31;;;;;;;19.40;11.77;;;13.10;89.70;;;;;;5090780;28;20020;-81
2021/11/19 09:15:59;;;;;;;13.57;9.50;;;13.20;89.70;;;;;;5089831;28;20107;-81
2021/11/19 09:19:09;;;;;;;14.05;10.23;;;13.20;89.70;;;;;;5082461;28;20055;-79
2021/11/19 09:21:40;;;;;;;13.90;9.88;;;13.20;89.60;;;;;;5090395;28;20024;-80
2021/11/19 09:24:29;;;;;;;16.42;11.40;;;13.20;89.50;;;;;;5092776;28;20470;-81
2021/11/19 09:26:58;;;;;;;16.55;13.00;;;13.20;89.50;;;;;;5089850;28;20674;-80
2021/11/19 09:29:30;;;;;;;16.67;11.23;;;13.20;89.50;;;;;;5087465;28;20032;-81
2021/11/19 09:31:56;;;;;;;14.23;10.05;;;13.20;89.60;;;;;;5090838;28;20024;-81
2021/11/19 09:34:22;;;;;;;13.35;9.68;;;13.30;89.50;;;;;;5087119;28;20024;-80
2021/11/19 09:36:51;;;;;;;13.70;8.88;;;13.30;89.40;;;;;;5086788;28;20036;-81
2021/11/19 09:39:20;;;;;;;10.23;8.25;;;13.30;89.40;;;;;;5090782;28;20024;-81
2021/11/19 09:41:52;;;;;;;13.38;9.23;;;13.40;89.50;;;;;;5087705;28;20024;-81
2021/11/19 09:44:17;;;;;;;15.23;10.13;;;13.40;89.30;;;;;;5090206;28;20050;-81
2021/11/19 09:47:15;;;;;;;11.77;8.63;;;13.40;89.40;;;;;;5092797;28;19998;-78
2021/11/19 09:50:14;;;;;;;11.65;7.65;;;13.40;89.30;;;;;;5087582;28;20501;-79
2021/11/19 09:52:58;;;;;;;9.90;7.82;;;13.50;89.20;;;;;;5087109;28;20028;-79
2021/11/19 09:56:02;;;;;;;11.63;8.43;;;13.50;89.10;;;;;;5089400;28;20024;-79
2021/11/19 09:58:40;;;;;;;12.40;9.07;;;13.50;89.10;;;;;;5066188;28;20036;-78
2021/11/19 10:01:18;;;;;;;11.75;8.43;;;13.50;89.00;;;;;;5089465;28;20040;-78
2021/11/19 10:04:01;;;;;;;12.55;8.77;;;13.60;89.00;;;;;;5089939;28;20027;-79
2021/11/19 10:06:51;;;;;;;12.02;9.10;;;13.60;88.90;;;;;;5088202;28;20105;-79
2021/11/19 10:09:30;;;;;;;10.05;7.60;;;13.60;88.90;;;;;;5092082;28;20040;-78
2021/11/19 10:12:19;;;;;;;10.50;7.88;;;13.60;88.80;;;;;;5089162;28;20086;-79
2021/11/19 10:14:58;;;;;;;9.35;7.50;;;13.70;88.80;;;;;;5088783;28;20447;-79
2021/11/19 10:17:46;;;;;;;10.38;7.80;;;13.70;88.80;;;;;;5078487;28;20023;-79
2021/11/19 10:20:34;;;;;;;10.35;6.10;;;13.70;88.70;;;;;;5089106;28;20027;-79
2021/11/19 10:23:05;;;;;;;10.95;7.22;;;13.80;88.60;;;;;;5086579;28;20024;-79
2021/11/19 10:25:34;;;;;;;11.05;7.45;;;13.80;88.50;;;;;;5079332;28;20082;-79
2021/11/19 10:28:05;;;;;;;14.98;9.10;;;13.80;88.40;;;;;;5087905;28;20016;-79
2021/11/19 10:30:43;;;;;;;10.90;8.45;;;13.80;88.30;;;;;;5087887;28;20020;-79
2021/11/19 10:33:32;;;;;;;11.82;7.93;;;13.80;88.30;;;;;;5087758;28;20360;-79
2021/11/19 10:36:04;;;;;;;9.07;6.90;;;13.80;88.30;;;;;;5080627;28;20099;-79
2021/11/19 10:39:07;;;;;;;11.85;7.65;;;13.90;88.20;;;;;;5087663;28;20035;-79
2021/11/19 10:42:10;;;;;;;10.48;6.88;;;14.00;88.20;;;;;;5089444;28;20545;-79
2021/11/19 10:44:52;;;;;;;;;;;14.00;88.10;;;;;;5088943;28;20050;-79
2021/11/19 10:47:27;;;;;;;7.85;6.05;;;14.10;87.90;;;;;;5095473;28;19926;-80
2021/11/19 10:50:21;;;;;;;11.50;7.00;;;14.00;87.80;;;;;;5088755;28;20077;-80
2021/11/19 10:52:50;;;;;;;12.40;6.85;;;14.10;87.80;;;;;;5090734;28;20055;-79
2021/11/19 10:55:53;;;;;;;9.88;5.57;;;14.10;87.70;;;;;;5090396;28;20028;-79
2021/11/19 10:59:16;;;;;;;7.10;5.10;;;14.10;87.60;;;;;;5091959;28;20043;-79
2021/11/19 11:01:49;;;;;;;8.50;5.43;;;14.20;87.50;;;;;;5086553;28;20031;-80
2021/11/19 11:04:21;;;;;;;7.28;4.80;;;14.20;87.40;;;;;;5089820;28;20077;-80
2021/11/19 11:06:53;;;;;;;8.05;4.68;;;14.30;87.30;;;;;;5086477;28;20032;-79
2021/11/19 11:09:25;;;;;;;6.65;4.00;;;14.30;87.20;;;;;;5090074;28;20103;-79
2021/11/19 11:11:54;;;;;;;8.70;5.43;;;14.40;87.10;;;;;;5089980;28;20119;-78
2021/11/19 11:14:20;;;;;;;7.22;4.30;;;14.40;86.90;;;;;;5078703;28;20025;-79
2021/11/19 11:16:49;;;;;;;6.53;3.83;;;14.40;86.80;;;;;;5082515;28;20069;-79
2021/11/19 11:19:23;;;;;;;10.88;6.13;;;14.40;86.60;;;;;;5081871;28;20487;-80
2021/11/19 11:21:54;;;;;;;6.25;4.38;;;14.40;86.40;;;;;;5089364;28;20069;-80
2021/11/19 11:24:26;;;;;;;6.93;5.00;;;14.40;86.30;;;;;;5091423;28;20028;-79
2021/11/19 11:27:00;;;;;;;6.63;3.90;;;14.30;86.20;;;;;;5079681;28;20041;-80
2021/11/19 11:29:41;;;;;;;10.80;5.60;;;14.40;86.30;;;;;;5087381;28;20066;-79
2021/11/19 11:32:16;;;;;;;7.20;5.07;;;14.30;86.10;;;;;;5084829;28;20024;-80
2021/11/19 11:34:44;;;;;;;8.07;4.95;;;14.40;86.20;;;;;;5094004;28;20032;-79
2021/11/19 11:37:13;;;;;;;6.95;4.45;;;14.30;86.10;;;;;;5087216;28;20085;-80
2021/11/19 11:39:45;;;;;;;7.65;6.15;;;14.30;86.00;;;;;;5084353;28;20510;-80
2021/11/19 11:42:30;;;;;;;7.28;5.03;;;14.30;85.80;;;;;;5083077;28;20545;-79
2021/11/19 11:45:20;;;;;;;7.10;5.18;;;14.30;85.80;;;;;;5090639;28;20033;-78
2021/11/19 11:48:00;;;;;;;8.52;6.13;;;14.30;85.80;;;;;;5095663;28;20028;-78
2021/11/19 11:50:37;;;;;;;7.65;6.35;;;14.30;85.80;;;;;;5093747;28;20024;-79
2021/11/19 11:53:16;;;;;;;8.80;6.47;;;14.30;85.80;;;;;;5095129;28;20042;-79
2021/11/19 11:55:45;;;;;;;7.43;5.63;;;14.30;85.70;;;;;;5088483;28;20462;-79
2021/11/19 11:58:26;;;;;;;8.60;6.30;;;14.30;85.70;;;;;;5100796;28;20016;-78
2021/11/19 12:01:08;;;;;;;8.82;6.60;;;14.30;85.60;;;;;;5097306;28;20020;-78
2021/11/19 12:04:16;;;;;;;6.25;5.38;;;14.30;85.50;;;;;;5080495;28;20020;-78
2021/11/19 12:07:02;;;;;;;9.23;6.68;;;14.30;85.40;;;;;;5081942;28;20048;-79
2021/11/19 12:09:39;;;;;;;10.15;6.18;;;14.30;85.30;;;;;;5093390;28;20440;-78
2021/11/19 12:12:39;;;;;;;9.18;6.78;;;14.30;85.40;;;;;;5085351;28;20047;-79
2021/11/19 12:15:08;;;;;;;7.65;6.22;;;14.30;85.20;;;;;;5078333;28;20024;-78
2021/11/19 12:17:49;;;;;;;10.35;5.65;;;14.30;85.10;;;;;;5075146;28;20028;-78
2021/11/19 12:20:31;;;;;;;8.55;5.47;;;14.30;85.20;;;;;;5093464;28;20024;-78
2021/11/19 12:23:20;;;;;;;7.25;5.22;;;14.30;85.10;;;;;;5093998;28;20028;-78
2021/11/19 12:26:22;;;;;;;9.50;5.78;;;14.30;85.10;;;;;;5094349;28;20194;-78
2021/11/19 12:29:15;;;;;;;11.00;6.57;;;14.30;85.00;;;;;;5092623;28;20123;-80
2021/11/19 12:31:50;;;;;;;7.13;5.57;;;14.30;84.80;;;;;;5093063;28;20505;-78
2021/11/19 12:34:38;;;;;;;8.77;5.88;;;14.20;84.80;;;;;;5092386;28;20016;-78
2021/11/19 12:37:22;;;;;;;7.25;5.35;;;14.20;84.70;;;;;;5082458;28;20037;-79
2021/11/19 12:39:48;;;;;;;14.20;11.25;;;14.20;84.80;;;;;;5084142;28;20035;-79
2021/11/19 12:42:40;;;;;;;8.43;7.57;;;14.20;84.80;;;;;;5091187;28;20115;-80
2021/11/19 12:45:18;;;;;;;7.97;6.00;;;14.20;84.70;;;;;;5083171;28;20020;-78
2021/11/19 12:48:11;;;;;;;6.38;5.55;;;14.30;84.70;;;;;;5082529;28;20501;-79
2021/11/19 12:50:41;;;;;;;7.22;5.65;;;14.20;84.70;;;;;;5075022;28;20187;-81
2021/11/19 12:53:15;;;;;;;6.47;4.15;;;14.20;84.60;;;;;;5081656;28;20024;-79
2021/11/19 12:55:49;;;;;;;5.70;4.30;;;14.20;84.70;;;;;;5093505;28;20038;-79